Time;durP1;ratioP1;P1;durP2;ratioP2;P2;SDS_P1;SDS_P2;PMS_P1;PMS_P2;Temp;Humidity;BMP_temperature;BMP_pressure;BME280_temperature;BME280_humidity;BME280_pressure;Samples;Min_cycle;Max_cycle;Signal;HPM_P1;HPM_P2
2021/07/19 00:00:10;;;;;;;22.03;3.90;;;19.30;99.90;;;;;;5040260;28;20490;-85
2021/07/19 00:02:37;;;;;;;23.40;3.47;;;19.20;99.90;;;;;;5052593;28;20454;-86
2021/07/19 00:05:05;;;;;;;20.47;3.17;;;19.20;99.90;;;;;;5038311;28;20909;-87
2021/07/19 00:07:33;;;;;;;21.80;3.30;;;19.10;99.90;;;;;;5045851;28;20444;-87
2021/07/19 00:10:00;;;;;;;22.87;3.57;;;19.10;99.90;;;;;;5053463;28;20484;-86
2021/07/19 00:12:27;;;;;;;22.97;3.20;;;19.10;99.90;;;;;;5053133;28;20523;-88
2021/07/19 00:14:54;;;;;;;21.90;3.30;;;19.00;99.90;;;;;;5055487;28;20507;-86
2021/07/19 00:17:21;;;;;;;22.57;3.40;;;19.00;99.90;;;;;;5043282;28;20928;-87
2021/07/19 00:19:49;;;;;;;24.50;3.40;;;19.10;99.90;;;;;;5033375;28;20441;-86
2021/07/19 00:22:17;;;;;;;22.40;3.30;;;19.10;99.90;;;;;;5046206;28;21238;-87
2021/07/19 00:24:45;;;;;;;22.90;2.93;;;19.20;99.90;;;;;;5053264;28;20491;-86
2021/07/19 00:27:13;;;;;;;20.23;2.83;;;19.10;99.90;;;;;;5054310;28;20491;-85
2021/07/19 00:29:40;;;;;;;21.50;3.30;;;19.10;99.90;;;;;;5062015;28;20482;-92
2021/07/19 00:32:08;;;;;;;20.97;3.03;;;19.00;99.90;;;;;;5070230;28;20464;-90
2021/07/19 00:34:36;;;;;;;21.70;4.10;;;19.00;99.90;;;;;;5062432;28;20452;-89
2021/07/19 00:37:04;;;;;;;19.33;3.07;;;18.90;99.90;;;;;;5078358;28;20443;-87
2021/07/19 00:39:31;;;;;;;21.40;3.67;;;18.80;99.90;;;;;;5057734;28;21035;-86
2021/07/19 00:41:59;;;;;;;22.23;3.90;;;18.70;99.90;;;;;;5041642;28;20469;-85
2021/07/19 00:44:26;;;;;;;22.30;4.07;;;18.70;99.90;;;;;;5042520;28;20475;-86
2021/07/19 00:46:55;;;;;;;20.60;3.80;;;18.60;99.90;;;;;;5033333;28;20552;-85
2021/07/19 00:49:24;;;;;;;20.83;4.00;;;18.60;99.90;;;;;;5047270;28;20476;-85
2021/07/19 00:51:52;;;;;;;19.13;3.63;;;18.50;99.90;;;;;;5040966;28;21295;-85
2021/07/19 00:54:20;;;;;;;19.97;3.40;;;18.40;99.90;;;;;;5033893;28;20476;-84
2021/07/19 00:56:49;;;;;;;22.20;3.80;;;18.30;99.90;;;;;;5033048;28;20457;-85
2021/07/19 00:59:18;;;;;;;19.57;3.67;;;18.30;99.90;;;;;;5046030;28;20456;-85
2021/07/19 01:01:48;;;;;;;21.33;3.30;;;18.30;99.90;;;;;;5039254;28;20459;-85
2021/07/19 01:04:17;;;;;;;20.80;3.60;;;18.20;99.90;;;;;;5032347;28;21064;-85
2021/07/19 01:06:45;;;;;;;20.50;4.30;;;18.20;99.90;;;;;;5033042;28;20543;-84
2021/07/19 01:09:12;;;;;;;18.60;3.40;;;18.10;99.90;;;;;;5032683;28;20538;-85
2021/07/19 01:11:39;;;;;;;18.70;3.40;;;18.10;99.90;;;;;;5037533;28;20459;-85
2021/07/19 01:14:06;;;;;;;19.50;4.47;;;18.10;99.90;;;;;;5053176;28;20455;-85
2021/07/19 01:16:34;;;;;;;18.27;3.80;;;18.10;99.90;;;;;;5058375;28;20476;-86
2021/07/19 01:19:01;;;;;;;18.93;3.73;;;18.10;99.90;;;;;;5056607;28;20456;-86
2021/07/19 01:22:16;;;;;;;19.10;3.97;;;18.10;99.90;;;;;;5065696;28;20449;-88
2021/07/19 01:24:51;;;;;;;19.20;3.73;;;18.10;99.90;;;;;;5022140;28;20503;-88
2021/07/19 01:27:59;;;;;;;19.40;3.50;;;18.10;99.90;;;;;;5052569;28;20405;-89
2021/07/19 01:30:29;;;;;;;18.90;3.70;;;18.10;99.90;;;;;;5040625;28;20502;-87
2021/07/19 01:33:00;;;;;;;18.50;4.60;;;18.10;99.90;;;;;;5043545;28;20476;-86
2021/07/19 01:35:27;;;;;;;20.73;3.87;;;18.00;99.90;;;;;;5039205;28;21022;-84
2021/07/19 01:37:56;;;;;;;17.33;3.77;;;18.00;99.90;;;;;;5049065;28;20447;-85
2021/07/19 01:40:23;;;;;;;21.47;4.57;;;18.00;99.90;;;;;;5058587;28;20530;-85
2021/07/19 01:42:52;;;;;;;19.30;3.90;;;17.90;99.90;;;;;;5056959;28;20832;-85
2021/07/19 01:45:19;;;;;;;19.70;3.90;;;17.90;99.90;;;;;;5039734;28;20563;-84
2021/07/19 01:47:48;;;;;;;17.30;4.53;;;17.90;99.90;;;;;;5038910;28;20547;-86
2021/07/19 01:50:16;;;;;;;18.83;4.27;;;17.90;99.90;;;;;;5038313;28;20488;-85
2021/07/19 01:52:44;;;;;;;18.50;3.97;;;17.90;99.90;;;;;;5048951;28;20444;-84
2021/07/19 01:55:12;;;;;;;17.73;3.50;;;17.90;99.90;;;;;;5043641;28;20472;-85
2021/07/19 01:57:39;;;;;;;20.33;4.60;;;17.90;99.90;;;;;;5037510;28;20456;-85
2021/07/19 02:00:08;;;;;;;20.90;5.97;;;17.90;99.90;;;;;;5044459;28;20455;-85
2021/07/19 02:02:37;;;;;;;17.20;3.73;;;17.90;99.90;;;;;;5058640;28;20893;-86
2021/07/19 02:05:09;;;;;;;18.63;4.73;;;17.90;99.90;;;;;;5058779;28;20471;-85
2021/07/19 02:07:38;;;;;;;16.90;4.13;;;17.90;99.90;;;;;;5073646;28;20455;-89
2021/07/19 02:10:07;;;;;;;18.10;4.73;;;17.80;99.90;;;;;;5051217;28;20487;-86
2021/07/19 02:12:36;;;;;;;18.73;4.70;;;17.70;99.90;;;;;;5039250;28;20460;-86
2021/07/19 02:15:07;;;;;;;17.57;4.63;;;17.70;99.90;;;;;;5046935;28;20460;-85
2021/07/19 02:17:36;;;;;;;16.70;4.37;;;17.70;99.90;;;;;;5038991;28;20443;-86
2021/07/19 02:20:10;;;;;;;17.27;4.10;;;17.60;99.90;;;;;;5052175;28;20817;-86
2021/07/19 02:22:40;;;;;;;15.90;4.90;;;17.60;99.90;;;;;;5044305;28;20452;-85
2021/07/19 02:25:08;;;;;;;17.00;4.60;;;17.60;99.90;;;;;;5049461;28;20479;-83
2021/07/19 02:27:38;;;;;;;17.73;4.53;;;17.50;99.90;;;;;;5058389;28;20909;-86
2021/07/19 02:30:07;;;;;;;16.93;4.53;;;17.50;99.90;;;;;;5046998;28;20853;-86
2021/07/19 02:32:35;;;;;;;16.47;5.43;;;17.50;99.90;;;;;;5049557;28;20451;-87
2021/07/19 02:35:05;;;;;;;18.20;5.20;;;17.50;99.90;;;;;;5058401;28;20478;-86
2021/07/19 02:37:36;;;;;;;17.10;5.10;;;17.50;99.90;;;;;;5053089;28;20521;-85
2021/07/19 02:40:05;;;;;;;19.20;4.90;;;17.50;99.90;;;;;;5038043;28;20825;-87
2021/07/19 02:42:33;;;;;;;19.10;5.17;;;17.50;99.90;;;;;;5038660;28;20452;-85
2021/07/19 02:45:03;;;;;;;17.30;4.80;;;17.50;99.90;;;;;;5035870;28;20475;-86
2021/07/19 02:47:30;;;;;;;17.10;5.03;;;17.50;99.90;;;;;;5035983;28;20556;-87
2021/07/19 02:49:57;;;;;;;18.80;5.63;;;17.50;99.90;;;;;;5035024;28;20989;-85
2021/07/19 02:52:25;;;;;;;16.07;5.20;;;17.50;99.90;;;;;;5036293;28;20448;-86
2021/07/19 02:54:54;;;;;;;16.77;4.80;;;17.50;99.90;;;;;;5037074;28;20483;-86
2021/07/19 02:57:21;;;;;;;17.10;5.50;;;17.60;99.90;;;;;;5059444;28;20511;-87
2021/07/19 02:59:48;;;;;;;20.07;5.57;;;17.50;99.90;;;;;;5055811;28;20483;-85
2021/07/19 03:02:21;;;;;;;19.67;6.07;;;17.50;99.90;;;;;;5038753;28;20531;-85
2021/07/19 03:04:52;;;;;;;19.43;5.23;;;17.60;99.90;;;;;;5036024;28;20473;-86
2021/07/19 03:07:21;;;;;;;17.77;5.47;;;17.60;99.90;;;;;;5036117;28;20528;-86
2021/07/19 03:09:52;;;;;;;19.70;6.10;;;17.60;99.90;;;;;;5035331;28;20487;-86
2021/07/19 03:12:23;;;;;;;17.33;5.00;;;17.50;99.90;;;;;;5034897;28;20467;-85
2021/07/19 03:14:51;;;;;;;16.50;5.00;;;17.50;99.90;;;;;;5035014;28;20481;-87
2021/07/19 03:17:20;;;;;;;21.93;6.40;;;17.50;99.90;;;;;;5035420;28;20459;-86
2021/07/19 03:19:48;;;;;;;21.37;6.37;;;17.50;99.90;;;;;;5034598;28;20453;-86
2021/07/19 03:22:16;;;;;;;17.70;5.63;;;17.40;99.90;;;;;;5035443;28;20477;-86
2021/07/19 03:24:45;;;;;;;17.57;6.00;;;17.40;99.90;;;;;;5035214;28;21022;-85
2021/07/19 03:27:12;;;;;;;29.70;6.50;;;17.30;99.90;;;;;;5039589;28;20460;-86
2021/07/19 03:29:41;;;;;;;17.90;5.93;;;17.30;99.90;;;;;;5053839;28;20459;-85
2021/07/19 03:32:09;;;;;;;20.03;6.27;;;17.30;99.90;;;;;;5053559;28;20479;-85
2021/07/19 03:34:38;;;;;;;18.27;6.23;;;17.30;99.90;;;;;;5054746;28;20467;-87
2021/07/19 03:37:06;;;;;;;19.40;6.43;;;17.40;99.90;;;;;;5054884;28;20444;-86
2021/07/19 03:39:33;;;;;;;19.90;6.80;;;17.30;99.90;;;;;;5054500;28;20470;-86
2021/07/19 03:42:00;;;;;;;17.00;6.03;;;17.40;99.90;;;;;;5034863;28;20456;-86
2021/07/19 03:44:28;;;;;;;17.20;5.73;;;17.40;99.90;;;;;;5051518;28;20853;-86
2021/07/19 03:46:57;;;;;;;17.50;6.20;;;17.50;99.90;;;;;;5055473;28;20451;-86
2021/07/19 03:49:25;;;;;;;16.50;6.43;;;17.50;99.90;;;;;;5040305;28;20452;-86
2021/07/19 03:51:52;;;;;;;21.77;7.17;;;17.60;99.90;;;;;;5035958;28;20473;-86
2021/07/19 03:54:18;;;;;;;21.10;7.00;;;17.70;99.90;;;;;;5035979;28;20463;-84
2021/07/19 03:56:45;;;;;;;18.67;6.27;;;17.70;99.90;;;;;;5034665;28;20491;-85
2021/07/19 03:59:14;;;;;;;19.30;6.90;;;17.70;99.90;;;;;;5036626;28;20456;-85
2021/07/19 04:01:42;;;;;;;20.37;6.60;;;17.80;99.90;;;;;;5035644;28;20461;-86
2021/07/19 04:04:16;;;;;;;19.10;6.10;;;17.80;99.90;;;;;;5043833;28;20832;-86
2021/07/19 04:06:44;;;;;;;20.37;6.80;;;17.80;99.90;;;;;;5054214;28;20459;-85
2021/07/19 04:09:11;;;;;;;19.40;7.70;;;17.90;99.90;;;;;;5054153;28;20956;-86
2021/07/19 04:11:39;;;;;;;19.03;6.33;;;17.90;99.90;;;;;;5055969;28;20582;-85
2021/07/19 04:14:08;;;;;;;21.33;7.30;;;18.00;99.90;;;;;;5066529;28;20507;-86
2021/07/19 04:16:35;;;;;;;20.37;6.90;;;18.00;99.90;;;;;;5069363;28;20202;-85
2021/07/19 04:19:02;;;;;;;20.63;7.80;;;18.10;99.90;;;;;;5054944;28;20476;-85
2021/07/19 04:21:33;;;;;;;21.40;6.90;;;18.10;99.90;;;;;;5052463;28;20486;-86
2021/07/19 04:24:01;;;;;;;20.57;7.27;;;18.10;99.90;;;;;;5046360;28;20448;-85
2021/07/19 04:26:28;;;;;;;19.40;7.30;;;18.10;99.90;;;;;;5073267;28;21007;-85
2021/07/19 04:28:56;;;;;;;19.50;6.43;;;18.10;99.90;;;;;;5053254;28;20536;-85
2021/07/19 04:31:23;;;;;;;21.43;7.67;;;18.10;99.90;;;;;;5044913;28;20516;-86
2021/07/19 04:33:50;;;;;;;23.63;7.43;;;18.00;99.90;;;;;;5048154;28;20905;-84
2021/07/19 04:36:17;;;;;;;19.67;7.10;;;18.10;99.90;;;;;;5064803;28;20904;-83
2021/07/19 04:38:47;;;;;;;22.30;6.50;;;18.10;99.90;;;;;;5065933;28;20478;-84
2021/07/19 04:41:17;;;;;;;20.00;6.70;;;18.10;99.90;;;;;;5056632;28;20456;-85
2021/07/19 04:43:44;;;;;;;20.80;7.50;;;18.20;99.90;;;;;;5070104;28;20548;-84
2021/07/19 04:46:10;;;;;;;23.03;7.43;;;18.20;99.90;;;;;;5069734;28;20585;-84
2021/07/19 04:48:38;;;;;;;21.60;7.83;;;18.20;99.90;;;;;;5059915;28;20461;-86
2021/07/19 04:51:05;;;;;;;20.00;6.93;;;18.20;99.90;;;;;;5049827;28;20579;-84
2021/07/19 04:53:32;;;;;;;22.07;8.10;;;18.20;99.90;;;;;;5049891;28;20436;-85
2021/07/19 04:56:03;;;;;;;20.27;7.50;;;18.30;99.90;;;;;;5050013;28;20580;-85
2021/07/19 04:58:30;;;;;;;22.00;8.00;;;18.30;99.90;;;;;;5057259;28;20456;-86
2021/07/19 05:01:01;;;;;;;19.37;7.60;;;18.30;99.90;;;;;;5070234;28;20464;-83
2021/07/19 05:03:31;;;;;;;18.87;7.40;;;18.40;99.90;;;;;;5068407;28;20456;-84
2021/07/19 05:06:00;;;;;;;22.90;8.27;;;18.40;99.90;;;;;;5065451;28;21023;-86
2021/07/19 05:08:28;;;;;;;24.63;8.30;;;18.40;99.90;;;;;;5056308;28;21036;-85
2021/07/19 05:10:57;;;;;;;22.93;7.97;;;18.40;99.90;;;;;;5050292;28;20485;-84
2021/07/19 05:13:27;;;;;;;21.77;7.50;;;18.40;99.90;;;;;;5056292;28;20527;-86
2021/07/19 05:15:54;;;;;;;18.30;7.13;;;18.40;99.90;;;;;;5069615;28;20474;-84
2021/07/19 05:18:22;;;;;;;19.43;7.77;;;18.40;99.90;;;;;;5065136;28;20533;-85
2021/07/19 05:20:51;;;;;;;24.10;7.60;;;18.50;99.90;;;;;;5069844;28;20459;-84
2021/07/19 05:23:22;;;;;;;20.90;8.67;;;18.50;99.90;;;;;;5067927;28;20460;-83
2021/07/19 05:25:48;;;;;;;21.03;7.40;;;18.60;99.90;;;;;;5071278;22;20520;-88
2021/07/19 05:28:16;;;;;;;24.67;8.70;;;18.60;99.90;;;;;;5036210;28;20516;-89
2021/07/19 05:30:47;;;;;;;21.07;7.43;;;18.60;99.90;;;;;;5045896;28;20583;-88
2021/07/19 05:33:15;;;;;;;20.17;7.50;;;18.70;99.90;;;;;;5044936;28;20476;-89
2021/07/19 05:35:42;;;;;;;20.90;8.47;;;18.80;99.90;;;;;;5048168;28;20476;-89
2021/07/19 05:38:09;;;;;;;23.37;8.80;;;18.80;99.90;;;;;;5050224;28;20460;-88
2021/07/19 05:40:37;;;;;;;20.10;8.27;;;18.80;99.90;;;;;;5046021;28;20457;-89
2021/07/19 05:43:04;;;;;;;23.20;8.17;;;18.80;99.90;;;;;;5050507;28;20457;-90
2021/07/19 05:45:31;;;;;;;18.87;7.43;;;18.80;99.90;;;;;;5049201;28;20508;-88
2021/07/19 05:48:00;;;;;;;23.50;8.60;;;18.80;99.90;;;;;;5060006;28;20449;-89
2021/07/19 05:50:27;;;;;;;18.80;7.20;;;18.70;99.90;;;;;;5068344;28;20475;-87
2021/07/19 05:52:54;;;;;;;19.50;8.53;;;18.80;99.90;;;;;;5064424;28;20455;-87
2021/07/19 05:55:21;;;;;;;23.73;8.57;;;18.80;99.90;;;;;;5024798;28;20467;-86
2021/07/19 05:57:48;;;;;;;19.40;7.77;;;18.90;99.90;;;;;;5038087;28;20520;-86
2021/07/19 06:00:16;;;;;;;20.43;8.70;;;18.90;99.90;;;;;;5038575;28;20452;-86
2021/07/19 06:02:43;;;;;;;24.43;9.03;;;19.00;99.90;;;;;;5052665;28;20452;-87
2021/07/19 06:05:13;;;;;;;19.37;7.70;;;18.90;99.90;;;;;;5036460;28;20472;-88
2021/07/19 06:07:40;;;;;;;20.50;8.37;;;18.90;99.90;;;;;;5033232;28;20954;-87
2021/07/19 06:10:10;;;;;;;21.73;8.47;;;19.00;99.90;;;;;;5039178;28;20467;-85
2021/07/19 06:12:37;;;;;;;22.93;8.90;;;19.00;99.90;;;;;;5034158;28;20488;-85
2021/07/19 06:15:04;;;;;;;24.87;8.20;;;19.10;99.90;;;;;;5034044;28;20472;-85
2021/07/19 06:17:33;;;;;;;19.77;7.30;;;19.20;99.90;;;;;;5026863;28;20482;-85
2021/07/19 06:20:00;;;;;;;19.77;7.80;;;19.30;99.90;;;;;;5024096;28;20464;-84
2021/07/19 06:22:28;;;;;;;21.07;8.33;;;19.30;99.90;;;;;;5043456;28;20472;-85
2021/07/19 06:24:55;;;;;;;22.80;8.20;;;19.40;99.90;;;;;;5034554;28;20457;-85
2021/07/19 06:27:22;;;;;;;20.03;7.70;;;19.40;99.90;;;;;;5040798;28;20449;-85
2021/07/19 06:29:49;;;;;;;21.57;7.70;;;19.50;99.90;;;;;;5044855;28;20471;-85
2021/07/19 06:32:15;;;;;;;21.30;8.47;;;19.50;99.90;;;;;;5037722;28;20484;-89
2021/07/19 06:34:42;;;;;;;22.83;8.97;;;19.50;99.90;;;;;;5030553;28;20539;-88
2021/07/19 06:37:10;;;;;;;24.90;8.90;;;19.50;99.90;;;;;;5031343;28;20567;-87
2021/07/19 06:39:46;;;;;;;27.00;8.23;;;19.60;99.90;;;;;;5048915;28;20459;-88
2021/07/19 06:42:13;;;;;;;19.80;8.10;;;19.70;99.90;;;;;;5051664;28;20440;-90
2021/07/19 06:44:40;;;;;;;20.10;8.00;;;19.70;99.90;;;;;;5050297;28;20483;-91
2021/07/19 06:47:07;;;;;;;21.10;7.67;;;19.70;99.90;;;;;;5052947;28;20467;-87
2021/07/19 06:49:34;;;;;;;21.20;7.67;;;19.80;99.90;;;;;;5049582;28;20449;-86
2021/07/19 06:52:01;;;;;;;19.37;6.93;;;19.80;99.90;;;;;;5041492;28;20481;-88
2021/07/19 06:54:28;;;;;;;20.70;8.53;;;19.90;99.90;;;;;;5046846;28;20462;-87
2021/07/19 06:56:56;;;;;;;21.37;8.87;;;19.90;99.90;;;;;;5049388;28;20469;-86
2021/07/19 06:59:23;;;;;;;21.50;8.90;;;19.90;99.90;;;;;;5051988;28;20472;-87
2021/07/19 07:01:50;;;;;;;22.30;8.63;;;19.90;99.90;;;;;;5051085;28;20441;-87
2021/07/19 07:04:17;;;;;;;22.80;8.03;;;19.90;99.90;;;;;;5056148;28;20429;-88
2021/07/19 07:06:44;;;;;;;25.07;7.63;;;20.00;99.90;;;;;;5053215;28;20473;-87
2021/07/19 07:09:11;;;;;;;19.60;7.30;;;20.00;99.90;;;;;;5048335;28;20460;-86
2021/07/19 07:11:38;;;;;;;19.90;7.40;;;20.00;99.90;;;;;;5035041;28;20500;-87
2021/07/19 07:14:07;;;;;;;20.50;7.70;;;20.00;99.90;;;;;;5034091;28;20574;-88
2021/07/19 07:16:36;;;;;;;25.17;8.63;;;20.00;99.90;;;;;;5046985;28;20472;-88
2021/07/19 07:19:04;;;;;;;20.93;7.70;;;20.00;99.90;;;;;;5051232;28;20457;-86
2021/07/19 07:21:31;;;;;;;17.63;7.37;;;20.00;99.90;;;;;;5038737;28;20960;-88
2021/07/19 07:24:00;;;;;;;21.93;7.60;;;20.20;99.90;;;;;;5022580;28;20450;-87
2021/07/19 07:26:28;;;;;;;26.10;8.50;;;20.20;99.90;;;;;;5030737;28;20488;-88
2021/07/19 07:28:55;;;;;;;20.10;8.03;;;20.30;99.90;;;;;;5031589;28;21036;-88
2021/07/19 07:31:28;;;;;;;20.60;7.90;;;20.30;99.90;;;;;;5032301;28;20488;-88
2021/07/19 07:33:58;;;;;;;23.50;8.03;;;20.30;99.90;;;;;;5032599;28;20459;-89
2021/07/19 07:36:25;;;;;;;21.00;7.90;;;20.20;99.90;;;;;;5032805;28;20560;-89
2021/07/19 07:38:53;;;;;;;21.93;8.17;;;20.30;99.90;;;;;;5031761;28;20453;-89
2021/07/19 07:41:21;;;;;;;20.97;8.67;;;20.30;99.90;;;;;;5033168;28;20953;-87
2021/07/19 07:43:48;;;;;;;20.67;7.97;;;20.30;99.90;;;;;;5033185;28;20945;-87
2021/07/19 07:46:15;;;;;;;21.37;7.47;;;20.10;99.90;;;;;;5032646;28;20481;-89
2021/07/19 07:48:44;;;;;;;21.03;7.40;;;20.20;99.90;;;;;;5027791;28;21008;-88
2021/07/19 07:51:13;;;;;;;22.00;8.40;;;20.30;99.90;;;;;;5018243;28;20496;-88
2021/07/19 07:53:40;;;;;;;20.50;7.30;;;20.40;99.90;;;;;;5030911;28;20946;-89
2021/07/19 07:56:07;;;;;;;20.10;7.77;;;20.40;99.90;;;;;;5032103;28;20477;-87
2021/07/19 07:58:35;;;;;;;19.47;7.63;;;20.40;99.90;;;;;;5031708;28;20850;-88
2021/07/19 08:01:04;;;;;;;19.70;7.53;;;20.20;99.90;;;;;;5030616;28;20563;-88
2021/07/19 08:03:31;;;;;;;20.63;7.63;;;20.30;99.90;;;;;;5013459;28;20453;-88
2021/07/19 08:06:00;;;;;;;21.63;7.93;;;20.20;99.90;;;;;;5028995;28;20479;-89
2021/07/19 08:08:26;;;;;;;20.07;7.43;;;20.20;99.90;;;;;;5024092;28;20457;-89
2021/07/19 08:10:54;;;;;;;19.90;7.27;;;20.20;99.90;;;;;;5026313;28;20463;-89
2021/07/19 08:13:21;;;;;;;19.63;7.50;;;20.30;99.90;;;;;;5025765;28;20445;-89
2021/07/19 08:18:42;;;;;;;20.97;7.70;;;20.40;99.90;;;;;;5025864;28;20484;-89
2021/07/19 08:21:10;;;;;;;20.63;6.90;;;20.40;99.90;;;;;;5030177;28;20478;-90
2021/07/19 08:23:37;;;;;;;23.40;7.70;;;20.40;99.90;;;;;;5031930;28;20536;-89
2021/07/19 08:26:04;;;;;;;24.90;7.10;;;20.50;99.90;;;;;;5036039;28;20491;-89
2021/07/19 08:28:31;;;;;;;25.20;8.00;;;20.50;99.90;;;;;;5051377;28;20968;-88
2021/07/19 08:30:58;;;;;;;25.77;7.53;;;20.60;99.90;;;;;;5052529;28;20971;-89
2021/07/19 08:33:25;;;;;;;22.30;7.77;;;20.60;99.90;;;;;;5049584;28;20574;-89
2021/07/19 08:35:52;;;;;;;22.07;7.00;;;20.60;99.90;;;;;;5031247;28;20473;-89
2021/07/19 08:38:20;;;;;;;20.80;7.10;;;20.60;99.90;;;;;;5031524;28;20461;-88
2021/07/19 08:40:48;;;;;;;23.43;7.07;;;20.50;99.90;;;;;;5023907;28;20449;-89
2021/07/19 08:43:15;;;;;;;22.60;7.23;;;20.40;99.90;;;;;;5029876;28;20567;-89
2021/07/19 08:45:47;;;;;;;24.00;7.57;;;20.40;99.90;;;;;;5022900;28;20473;-88
2021/07/19 08:48:14;;;;;;;21.77;6.60;;;20.40;99.90;;;;;;5024112;28;20469;-88
2021/07/19 08:50:42;;;;;;;20.53;7.23;;;20.40;99.90;;;;;;5025292;28;20457;-89
2021/07/19 08:53:09;;;;;;;20.70;7.07;;;20.40;99.90;;;;;;5030972;28;20480;-89
2021/07/19 08:55:39;;;;;;;24.50;7.97;;;20.50;99.90;;;;;;5032627;28;20484;-89
2021/07/19 08:58:07;;;;;;;22.93;8.13;;;20.50;99.90;;;;;;5027810;28;20467;-89
2021/07/19 09:00:34;;;;;;;20.47;7.47;;;20.60;99.90;;;;;;5030850;28;20457;-89
2021/07/19 09:03:01;;;;;;;21.07;7.73;;;20.70;99.90;;;;;;5030704;28;20440;-89
2021/07/19 09:05:31;;;;;;;23.57;7.63;;;20.90;99.90;;;;;;5031752;28;20471;-88
2021/07/19 09:08:00;;;;;;;23.10;8.33;;;21.10;99.90;;;;;;5031607;28;20469;-88
2021/07/19 09:10:29;;;;;;;22.47;7.50;;;21.10;99.90;;;;;;5030638;28;20456;-89
2021/07/19 09:13:00;;;;;;;24.13;8.00;;;21.10;99.90;;;;;;5031802;28;20481;-89
2021/07/19 09:15:33;;;;;;;22.83;7.27;;;21.10;99.90;;;;;;5038541;28;20476;-88
2021/07/19 09:18:01;;;;;;;22.33;8.27;;;21.00;99.90;;;;;;5030766;28;20811;-89
2021/07/19 09:20:34;;;;;;;27.40;8.00;;;20.90;99.90;;;;;;5030766;28;20453;-90
2021/07/19 09:23:01;;;;;;;24.70;7.17;;;20.70;99.90;;;;;;5031520;28;20425;-88
2021/07/19 09:25:28;;;;;;;20.50;6.70;;;20.60;99.90;;;;;;5030981;28;20921;-89
2021/07/19 09:27:59;;;;;;;23.50;8.07;;;20.60;99.90;;;;;;5030372;28;20540;-91
2021/07/19 09:30:30;;;;;;;24.80;8.07;;;20.50;99.90;;;;;;5038804;28;20491;-89
2021/07/19 09:33:00;;;;;;;23.93;8.00;;;20.40;99.90;;;;;;5032012;28;20476;-89
2021/07/19 09:35:28;;;;;;;24.23;7.97;;;20.30;99.90;;;;;;5030249;28;20476;-89
2021/07/19 09:37:56;;;;;;;27.30;8.80;;;20.30;99.90;;;;;;5032101;28;20460;-89
2021/07/19 09:40:27;;;;;;;23.63;7.80;;;20.30;99.90;;;;;;5032419;28;20543;-90
2021/07/19 09:42:55;;;;;;;24.43;8.40;;;20.30;99.90;;;;;;5031204;28;20514;-90
2021/07/19 09:45:36;;;;;;;23.80;8.30;;;20.30;99.90;;;;;;5031833;28;20487;-90
2021/07/19 09:50:59;;;;;;;23.00;7.23;;;20.40;99.90;;;;;;4982327;28;20437;-89
2021/07/19 09:53:41;;;;;;;21.50;7.33;;;20.40;99.90;;;;;;5018054;28;20488;-89
2021/07/19 09:59:10;;;;;;;22.13;8.23;;;20.40;99.90;;;;;;5035199;28;20461;-90
2021/07/19 10:01:48;;;;;;;23.67;7.97;;;20.40;99.90;;;;;;5035918;28;20449;-90
2021/07/19 10:04:22;;;;;;;22.80;7.70;;;20.40;99.90;;;;;;5031891;28;20825;-89
2021/07/19 10:06:55;;;;;;;23.07;7.60;;;20.30;99.90;;;;;;5035135;28;20468;-90
2021/07/19 10:09:25;;;;;;;21.50;7.70;;;20.30;99.90;;;;;;5037206;28;20544;-90
2021/07/19 10:11:55;;;;;;;23.10;7.93;;;20.30;99.90;;;;;;5035138;28;20511;-90
2021/07/19 10:14:35;;;;;;;25.57;8.33;;;20.40;99.90;;;;;;5035353;28;20461;-89
2021/07/19 10:17:12;;;;;;;25.13;7.67;;;20.40;99.90;;;;;;5034018;28;20521;-90
2021/07/19 10:19:41;;;;;;;21.50;8.70;;;20.50;99.90;;;;;;5032254;28;20461;-89
2021/07/19 10:22:13;;;;;;;23.00;7.63;;;20.60;99.90;;;;;;5035433;28;20813;-90
2021/07/19 10:24:56;;;;;;;22.83;8.60;;;20.60;99.90;;;;;;5035050;28;20508;-89
2021/07/19 10:27:26;;;;;;;21.50;8.10;;;20.60;99.90;;;;;;5034122;28;20922;-89
2021/07/19 10:29:55;;;;;;;25.07;8.30;;;20.70;99.90;;;;;;5033820;28;20480;-89
2021/07/19 10:32:24;;;;;;;20.87;8.60;;;21.00;99.90;;;;;;5035075;28;20989;-89
2021/07/19 10:34:52;;;;;;;25.70;9.10;;;21.20;99.90;;;;;;5035157;28;20445;-89
2021/07/19 10:37:23;;;;;;;23.53;8.00;;;21.40;99.90;;;;;;5042718;28;20451;-89
2021/07/19 10:39:55;;;;;;;24.07;9.17;;;21.60;99.90;;;;;;5054185;28;20420;-89
2021/07/19 10:42:32;;;;;;;22.47;8.90;;;21.90;99.90;;;;;;5054882;28;20452;-89
2021/07/19 10:45:08;;;;;;;28.90;10.50;;;22.20;99.90;;;;;;5034157;28;20452;-90
2021/07/19 10:47:46;;;;;;;26.87;10.50;;;22.30;99.90;;;;;;5034017;28;20458;-90
2021/07/19 10:50:17;;;;;;;26.97;10.10;;;22.40;99.90;;;;;;5032747;28;20972;-90
2021/07/19 10:52:44;;;;;;;26.90;10.33;;;22.50;99.90;;;;;;5033960;28;20492;-89
2021/07/19 10:55:24;;;;;;;24.73;8.87;;;22.50;99.90;;;;;;5025724;28;21027;-90
2021/07/19 10:58:01;;;;;;;26.67;10.07;;;22.50;99.90;;;;;;5029108;28;20460;-90
2021/07/19 11:00:29;;;;;;;26.60;8.77;;;22.50;99.90;;;;;;5030444;28;20456;-90
2021/07/19 11:03:02;;;;;;;22.37;8.83;;;22.40;99.90;;;;;;5028079;28;20455;-90
2021/07/19 11:05:35;;;;;;;26.80;9.20;;;22.40;99.90;;;;;;5013360;28;20499;-89
2021/07/19 11:08:02;;;;;;;26.17;8.60;;;22.40;99.90;;;;;;5023075;28;20433;-86
2021/07/19 11:10:29;;;;;;;24.37;9.80;;;22.30;99.90;;;;;;5045068;28;20451;-87
2021/07/19 11:12:57;;;;;;;28.83;9.50;;;22.30;99.90;;;;;;5059635;28;20523;-86
2021/07/19 11:15:34;;;;;;;26.73;9.10;;;22.20;99.90;;;;;;5061937;28;20486;-86
2021/07/19 11:18:13;;;;;;;28.77;8.93;;;22.10;99.90;;;;;;5058846;28;20439;-85
2021/07/19 11:20:41;;;;;;;31.03;10.00;;;22.10;99.90;;;;;;5057288;28;20437;-87
2021/07/19 11:23:09;;;;;;;25.13;9.13;;;22.40;99.90;;;;;;5037957;28;20487;-85
2021/07/19 11:25:42;;;;;;;30.60;9.97;;;22.50;99.90;;;;;;5036533;28;20487;-86
2021/07/19 11:28:17;;;;;;;31.03;9.70;;;22.40;99.90;;;;;;5035930;28;20456;-86
2021/07/19 11:31:02;;;;;;;24.53;8.00;;;22.40;99.90;;;;;;5036579;28;20460;-85
2021/07/19 11:33:35;;;;;;;26.63;8.27;;;22.40;99.90;;;;;;5017781;28;20481;-84
2021/07/19 11:36:04;;;;;;;25.07;8.97;;;22.20;99.90;;;;;;5222594;22;21012;-87
2021/07/19 11:38:38;;;;;;;25.47;9.10;;;22.30;99.90;;;;;;5031786;28;20949;-87
2021/07/19 11:41:15;;;;;;;29.83;9.57;;;22.30;99.90;;;;;;5030036;28;20941;-88
2021/07/19 11:43:43;;;;;;;26.70;9.37;;;22.20;99.90;;;;;;5032733;28;20448;-87
2021/07/19 11:46:10;;;;;;;25.27;9.20;;;22.20;99.90;;;;;;5031988;28;21318;-87
2021/07/19 11:48:42;;;;;;;23.00;8.33;;;22.20;99.90;;;;;;5032773;28;20480;-86
2021/07/19 11:51:10;;;;;;;24.43;8.83;;;22.30;99.90;;;;;;5024283;28;20453;-87
2021/07/19 11:53:43;;;;;;;27.77;8.87;;;22.30;99.90;;;;;;5032417;28;20481;-88
2021/07/19 11:56:11;;;;;;;24.47;9.77;;;22.60;99.90;;;;;;5032971;28;20485;-88
2021/07/19 11:58:50;;;;;;;25.27;8.77;;;22.90;99.90;;;;;;5027237;28;20730;-88
2021/07/19 12:01:24;;;;;;;28.60;9.20;;;23.00;99.90;;;;;;5030755;28;20540;-88
2021/07/19 12:03:55;;;;;;;27.47;9.37;;;22.90;99.90;;;;;;5027994;28;20463;-88
2021/07/19 12:06:22;;;;;;;25.63;9.10;;;22.80;99.90;;;;;;5029807;28;20504;-88
2021/07/19 12:08:53;;;;;;;27.13;9.90;;;22.80;99.90;;;;;;5029601;28;20457;-88
2021/07/19 12:11:21;;;;;;;26.10;9.47;;;22.60;99.90;;;;;;5022221;28;20466;-88
2021/07/19 12:13:48;;;;;;;24.80;8.70;;;22.50;99.90;;;;;;5029461;28;20504;-90
2021/07/19 12:16:16;;;;;;;27.23;8.83;;;22.40;99.90;;;;;;5023274;28;20896;-87
2021/07/19 12:18:49;;;;;;;24.57;8.77;;;21.90;99.90;;;;;;5024498;28;20458;-87
2021/07/19 12:21:19;;;;;;;24.50;8.87;;;22.10;99.90;;;;;;5032798;28;20540;-88
2021/07/19 12:23:47;;;;;;;26.27;8.33;;;22.40;99.90;;;;;;5027646;28;20536;-88
2021/07/19 12:26:17;;;;;;;23.97;9.47;;;22.90;99.90;;;;;;5027495;28;20582;-88
2021/07/19 12:28:58;;;;;;;25.77;9.30;;;23.50;99.90;;;;;;5016864;28;20522;-88
2021/07/19 12:31:30;;;;;;;28.53;9.47;;;24.00;99.90;;;;;;5032392;28;20465;-89
2021/07/19 12:34:00;;;;;;;28.33;9.10;;;24.30;99.90;;;;;;5030447;28;20504;-88
2021/07/19 12:36:29;;;;;;;43.90;9.03;;;24.50;99.90;;;;;;5051087;28;20464;-89
2021/07/19 12:38:56;;;;;;;295.47;277.03;;;24.80;99.90;;;;;;5045696;28;20507;-88
2021/07/19 12:41:23;;;;;;;1999.90;999.90;;;25.40;99.90;;;;;;5020887;28;20458;-88
2021/07/19 12:43:51;;;;;;;1999.90;999.90;;;25.90;99.90;;;;;;5028921;28;20476;-87
2021/07/19 12:46:18;;;;;;;1999.90;999.90;;;26.20;99.90;;;;;;5017828;28;20480;-88
2021/07/19 12:48:46;;;;;;;1999.90;999.90;;;26.30;99.90;;;;;;5031660;28;20453;-88
2021/07/19 12:51:14;;;;;;;958.90;606.40;;;26.10;99.90;;;;;;5027758;28;20465;-87
2021/07/19 12:53:43;;;;;;;1999.90;999.90;;;25.90;99.90;;;;;;5032316;28;20480;-88